AEE763 DNMM-DIAP
Flight info
| Callsign | AEE763 |
|---|---|
| Flight time | N/A |
| Altitude | 6500 |
| Route | PORTONOVO GRANDPOPO KETA KOFORIDUA CAPECOAST NSUTA LOGUNAEHYLAKE GRANDBASSAM |
| Aircraft | C310/L-SDFGR/S |
Departure
| Time | 2026-04-30 12:34 |
|---|---|
| Airport | Murtala Muhammed International Airport (DNMM) |
Arrival
| Time | N/A |
|---|---|
| Airport | Félix-Houphouët-Boigny International Airport (DIAP) |
| Time | Latitude | Longitude | Altitude | Speed | Heading |
|---|---|---|---|---|---|
| 2026-04-30 12:23 | 6.59231 | 3.33132 | 124 ft | 0 kts | 155° |
| 2026-04-30 12:30 | 6.59230 | 3.33133 | 124 ft | 1 kts | 155° |
| 2026-04-30 12:31 | 6.59210 | 3.33140 | 123 ft | 4 kts | 178° |
| 2026-04-30 12:31 | 6.59182 | 3.33099 | 123 ft | 13 kts | 246° |
| 2026-04-30 12:31 | 6.59134 | 3.33040 | 124 ft | 11 kts | 181° |
| 2026-04-30 12:31 | 6.59041 | 3.33040 | 124 ft | 16 kts | 180° |
| 2026-04-30 12:32 | 6.58945 | 3.33040 | 125 ft | 13 kts | 178° |
| 2026-04-30 12:32 | 6.58856 | 3.33041 | 124 ft | 13 kts | 179° |
| 2026-04-30 12:32 | 6.58771 | 3.33041 | 123 ft | 11 kts | 179° |
| 2026-04-30 12:32 | 6.58699 | 3.33038 | 122 ft | 10 kts | 209° |
| 2026-04-30 12:33 | 6.58688 | 3.32986 | 122 ft | 0 kts | 270° |
| 2026-04-30 12:33 | 6.58688 | 3.32970 | 123 ft | 8 kts | 270° |
| 2026-04-30 12:33 | 6.58762 | 3.32897 | 122 ft | 34 kts | 360° |
| 2026-04-30 12:34 | 6.59244 | 3.32892 | 127 ft | 98 kts | 357° |
| 2026-04-30 12:34 | 6.60007 | 3.32882 | 354 ft | 116 kts | 358° |
| 2026-04-30 12:34 | 6.60838 | 3.32881 | 749 ft | 122 kts | 357° |
| 2026-04-30 12:34 | 6.61659 | 3.32794 | 1289 ft | 116 kts | 336° |
| 2026-04-30 12:35 | 6.62331 | 3.32369 | 1729 ft | 116 kts | 314° |
| 2026-04-30 12:35 | 6.62688 | 3.31679 | 2171 ft | 108 kts | 268° |
| 2026-04-30 12:35 | 6.62414 | 3.30956 | 2447 ft | 117 kts | 232° |
| 2026-04-30 12:35 | 6.62086 | 3.30538 | 2718 ft | 114 kts | 230° |
| 2026-04-30 12:36 | 6.61588 | 3.29906 | 3075 ft | 116 kts | 230° |
| 2026-04-30 12:36 | 6.61074 | 3.29276 | 3421 ft | 117 kts | 228° |
| 2026-04-30 12:36 | 6.60523 | 3.28642 | 3731 ft | 123 kts | 226° |
| 2026-04-30 12:36 | 6.59946 | 3.27993 | 4075 ft | 125 kts | 226° |
| 2026-04-30 12:37 | 6.59338 | 3.27315 | 4307 ft | 137 kts | 226° |
| 2026-04-30 12:37 | 6.58405 | 3.26285 | 4438 ft | 160 kts | 226° |
| 2026-04-30 12:37 | 6.57889 | 3.25720 | 4464 ft | 170 kts | 226° |
| 2026-04-30 12:37 | 6.57215 | 3.24691 | 4475 ft | 183 kts | 244° |
| 2026-04-30 12:38 | 6.56750 | 3.23465 | 4469 ft | 192 kts | 251° |
| 2026-04-30 12:38 | 6.56363 | 3.22158 | 4469 ft | 198 kts | 254° |
| 2026-04-30 12:38 | 6.56039 | 3.20803 | 4465 ft | 201 kts | 260° |
| 2026-04-30 12:38 | 6.55831 | 3.19412 | 4467 ft | 202 kts | 261° |
| 2026-04-30 12:39 | 6.55614 | 3.18013 | 4475 ft | 203 kts | 261° |
| 2026-04-30 12:39 | 6.55388 | 3.16604 | 4468 ft | 204 kts | 261° |
| 2026-04-30 12:39 | 6.55165 | 3.15194 | 4462 ft | 204 kts | 261° |
| 2026-04-30 12:39 | 6.54942 | 3.13783 | 4469 ft | 204 kts | 261° |
| 2026-04-30 12:40 | 6.54719 | 3.12371 | 4471 ft | 205 kts | 261° |
| 2026-04-30 12:40 | 6.54494 | 3.10953 | 4469 ft | 205 kts | 261° |
| 2026-04-30 12:40 | 6.54270 | 3.09536 | 4464 ft | 205 kts | 261° |
| 2026-04-30 12:40 | 6.54045 | 3.08119 | 4466 ft | 205 kts | 261° |
| 2026-04-30 12:41 | 6.53821 | 3.06705 | 4509 ft | 202 kts | 261° |
| 2026-04-30 12:41 | 6.53604 | 3.05336 | 4696 ft | 195 kts | 261° |
| 2026-04-30 12:41 | 6.53398 | 3.04028 | 4853 ft | 190 kts | 261° |
| 2026-04-30 12:41 | 6.53193 | 3.02729 | 5020 ft | 186 kts | 260° |
| 2026-04-30 12:42 | 6.52989 | 3.01448 | 5192 ft | 185 kts | 261° |
| 2026-04-30 12:42 | 6.52788 | 3.00181 | 5355 ft | 183 kts | 261° |
| 2026-04-30 12:42 | 6.52588 | 2.98923 | 5524 ft | 182 kts | 261° |
| 2026-04-30 12:42 | 6.52391 | 2.97673 | 5688 ft | 180 kts | 260° |
| 2026-04-30 12:43 | 6.52193 | 2.96432 | 5851 ft | 179 kts | 261° |
| 2026-04-30 12:43 | 6.51997 | 2.95193 | 6036 ft | 179 kts | 261° |
| 2026-04-30 12:43 | 6.51801 | 2.93956 | 6214 ft | 179 kts | 260° |
| 2026-04-30 12:43 | 6.51604 | 2.92712 | 6338 ft | 182 kts | 260° |
| 2026-04-30 12:44 | 6.51400 | 2.91440 | 6395 ft | 187 kts | 261° |
| 2026-04-30 12:44 | 6.51195 | 2.90135 | 6419 ft | 191 kts | 261° |
| 2026-04-30 12:44 | 6.50982 | 2.88796 | 6436 ft | 196 kts | 261° |
| 2026-04-30 12:44 | 6.50766 | 2.87435 | 6437 ft | 199 kts | 261° |
| 2026-04-30 12:45 | 6.50547 | 2.86056 | 6445 ft | 201 kts | 261° |
| 2026-04-30 12:45 | 6.50325 | 2.84658 | 6444 ft | 203 kts | 261° |
| 2026-04-30 12:45 | 6.50101 | 2.83253 | 6441 ft | 204 kts | 261° |
| 2026-04-30 12:45 | 6.49877 | 2.81838 | 6442 ft | 205 kts | 261° |
| 2026-04-30 12:46 | 6.49651 | 2.80418 | 6445 ft | 206 kts | 260° |
| 2026-04-30 12:46 | 6.49424 | 2.78991 | 6445 ft | 207 kts | 260° |
| 2026-04-30 12:46 | 6.49200 | 2.77582 | 6438 ft | 207 kts | 260° |
| 2026-04-30 12:46 | 6.48972 | 2.76149 | 6440 ft | 207 kts | 260° |
| 2026-04-30 12:47 | 6.48745 | 2.74720 | 6442 ft | 207 kts | 260° |
| 2026-04-30 12:47 | 6.48517 | 2.73289 | 6434 ft | 207 kts | 261° |
| 2026-04-30 12:47 | 6.48290 | 2.71858 | 6437 ft | 207 kts | 261° |
| 2026-04-30 12:47 | 6.48062 | 2.70429 | 6434 ft | 207 kts | 260° |
| 2026-04-30 12:48 | 6.47834 | 2.68997 | 6434 ft | 207 kts | 261° |
| 2026-04-30 12:48 | 6.47607 | 2.67566 | 6436 ft | 207 kts | 260° |
| 2026-04-30 12:48 | 6.47377 | 2.66133 | 6430 ft | 208 kts | 260° |
| 2026-04-30 12:48 | 6.47149 | 2.64697 | 6431 ft | 208 kts | 261° |
| 2026-04-30 12:49 | 6.46921 | 2.63261 | 6426 ft | 208 kts | 261° |
| 2026-04-30 12:49 | 6.46694 | 2.61825 | 6427 ft | 208 kts | 260° |
| 2026-04-30 12:49 | 6.46369 | 2.60410 | 6421 ft | 208 kts | 255° |
| 2026-04-30 12:49 | 6.46013 | 2.59002 | 6420 ft | 207 kts | 255° |
| 2026-04-30 12:50 | 6.45672 | 2.57595 | 6421 ft | 207 kts | 256° |
| 2026-04-30 12:50 | 6.45331 | 2.56188 | 6424 ft | 208 kts | 256° |
| 2026-04-30 12:50 | 6.44984 | 2.54776 | 6429 ft | 208 kts | 255° |
| 2026-04-30 12:50 | 6.44641 | 2.53362 | 6420 ft | 208 kts | 256° |
| 2026-04-30 12:51 | 6.44294 | 2.51948 | 6415 ft | 208 kts | 255° |
| 2026-04-30 12:51 | 6.43949 | 2.50535 | 6416 ft | 208 kts | 255° |
| 2026-04-30 12:51 | 6.43604 | 2.49124 | 6417 ft | 208 kts | 255° |
| 2026-04-30 12:51 | 6.43260 | 2.47712 | 6421 ft | 208 kts | 255° |
| 2026-04-30 12:52 | 6.42915 | 2.46304 | 6420 ft | 208 kts | 255° |
| 2026-04-30 12:52 | 6.42571 | 2.44893 | 6419 ft | 208 kts | 255° |
| 2026-04-30 12:52 | 6.42231 | 2.43501 | 6418 ft | 208 kts | 255° |
| 2026-04-30 12:52 | 6.41886 | 2.42094 | 6418 ft | 207 kts | 255° |
| 2026-04-30 12:53 | 6.41542 | 2.40686 | 6418 ft | 207 kts | 255° |
| 2026-04-30 12:53 | 6.41198 | 2.39279 | 6420 ft | 207 kts | 255° |
| 2026-04-30 12:53 | 6.40855 | 2.37874 | 6417 ft | 207 kts | 255° |
| 2026-04-30 12:53 | 6.40511 | 2.36469 | 6416 ft | 207 kts | 255° |
| 2026-04-30 12:54 | 6.40168 | 2.35067 | 6415 ft | 206 kts | 256° |
| 2026-04-30 12:54 | 6.39826 | 2.33666 | 6421 ft | 206 kts | 255° |
| 2026-04-30 12:54 | 6.39482 | 2.32263 | 6434 ft | 207 kts | 256° |
| 2026-04-30 12:54 | 6.39138 | 2.30852 | 6440 ft | 209 kts | 255° |
| 2026-04-30 12:55 | 6.38790 | 2.29431 | 6432 ft | 210 kts | 255° |
| 2026-04-30 12:55 | 6.38439 | 2.28000 | 6428 ft | 211 kts | 255° |
| 2026-04-30 12:55 | 6.38088 | 2.26564 | 6424 ft | 212 kts | 255° |
| 2026-04-30 12:55 | 6.37735 | 2.25123 | 6422 ft | 212 kts | 255° |
| 2026-04-30 12:56 | 6.37383 | 2.23682 | 6423 ft | 213 kts | 255° |
| 2026-04-30 12:56 | 6.37029 | 2.22240 | 6409 ft | 212 kts | 255° |
| 2026-04-30 12:56 | 6.36677 | 2.20807 | 6408 ft | 211 kts | 255° |
| 2026-04-30 12:56 | 6.36329 | 2.19379 | 6407 ft | 210 kts | 255° |
| 2026-04-30 12:57 | 6.35979 | 2.17954 | 6418 ft | 210 kts | 255° |
| 2026-04-30 12:57 | 6.35630 | 2.16525 | 6412 ft | 210 kts | 255° |
| 2026-04-30 12:57 | 6.35281 | 2.15103 | 6408 ft | 209 kts | 255° |
| 2026-04-30 12:57 | 6.34933 | 2.13684 | 6406 ft | 209 kts | 255° |
| 2026-04-30 12:58 | 6.34588 | 2.12269 | 6402 ft | 208 kts | 255° |
| 2026-04-30 12:58 | 6.34242 | 2.10862 | 6415 ft | 207 kts | 255° |
| 2026-04-30 12:58 | 6.33895 | 2.09448 | 6419 ft | 209 kts | 255° |
| 2026-04-30 12:58 | 6.33548 | 2.08029 | 6408 ft | 209 kts | 255° |
| 2026-04-30 12:59 | 6.33198 | 2.06613 | 6405 ft | 208 kts | 255° |
| 2026-04-30 12:59 | 6.32855 | 2.05203 | 6413 ft | 208 kts | 255° |
| 2026-04-30 12:59 | 6.32508 | 2.03791 | 6408 ft | 208 kts | 255° |
| 2026-04-30 12:59 | 6.32161 | 2.02375 | 6407 ft | 208 kts | 255° |
| 2026-04-30 13:00 | 6.31814 | 2.00968 | 6405 ft | 208 kts | 255° |
| 2026-04-30 13:00 | 6.31471 | 1.99558 | 6405 ft | 208 kts | 255° |
| 2026-04-30 13:00 | 6.31123 | 1.98149 | 6417 ft | 208 kts | 255° |
| 2026-04-30 13:00 | 6.30775 | 1.96733 | 6419 ft | 209 kts | 255° |
| 2026-04-30 13:01 | 6.30428 | 1.95312 | 6402 ft | 209 kts | 255° |
| 2026-04-30 13:01 | 6.30078 | 1.93891 | 6412 ft | 210 kts | 255° |
| 2026-04-30 13:01 | 6.29735 | 1.92486 | 6401 ft | 210 kts | 256° |
| 2026-04-30 13:01 | 6.29385 | 1.91063 | 6416 ft | 210 kts | 255° |
| 2026-04-30 13:02 | 6.29033 | 1.89635 | 6451 ft | 212 kts | 255° |
| 2026-04-30 13:02 | 6.28676 | 1.88184 | 6484 ft | 215 kts | 255° |
| 2026-04-30 13:02 | 6.28318 | 1.86720 | 6455 ft | 216 kts | 255° |
| 2026-04-30 13:02 | 6.27961 | 1.85260 | 6431 ft | 215 kts | 255° |
| 2026-04-30 13:03 | 6.27602 | 1.83809 | 6417 ft | 213 kts | 255° |
| 2026-04-30 13:03 | 6.27250 | 1.82371 | 6413 ft | 211 kts | 255° |
| 2026-04-30 13:03 | 6.26866 | 1.80949 | 6409 ft | 210 kts | 253° |
| 2026-04-30 13:03 | 6.26433 | 1.79551 | 6402 ft | 209 kts | 251° |
| 2026-04-30 13:04 | 6.25893 | 1.78200 | 6408 ft | 208 kts | 244° |
| 2026-04-30 13:04 | 6.25302 | 1.76879 | 6403 ft | 207 kts | 244° |
| 2026-04-30 13:04 | 6.24724 | 1.75553 | 6404 ft | 207 kts | 245° |
| 2026-04-30 13:04 | 6.24149 | 1.74231 | 6407 ft | 206 kts | 245° |
| 2026-04-30 13:05 | 6.23572 | 1.72913 | 6406 ft | 206 kts | 245° |
| 2026-04-30 13:05 | 6.22998 | 1.71598 | 6403 ft | 206 kts | 245° |
| 2026-04-30 13:05 | 6.22423 | 1.70282 | 6409 ft | 205 kts | 245° |
| 2026-04-30 13:06 | 6.21275 | 1.67651 | 6407 ft | 205 kts | 245° |
| 2026-04-30 13:06 | 6.20701 | 1.66336 | 6400 ft | 206 kts | 245° |
| 2026-04-30 13:06 | 6.20133 | 1.65037 | 6407 ft | 206 kts | 245° |
| 2026-04-30 13:06 | 6.19559 | 1.63723 | 6404 ft | 206 kts | 245° |
| 2026-04-30 13:07 | 6.18984 | 1.62407 | 6405 ft | 206 kts | 245° |
| 2026-04-30 13:07 | 6.18408 | 1.61090 | 6408 ft | 206 kts | 245° |
| 2026-04-30 13:07 | 6.17833 | 1.59774 | 6407 ft | 206 kts | 245° |
| 2026-04-30 13:07 | 6.17257 | 1.58454 | 6406 ft | 206 kts | 245° |
| 2026-04-30 13:08 | 6.16680 | 1.57135 | 6403 ft | 206 kts | 245° |
| 2026-04-30 13:08 | 6.16103 | 1.55816 | 6407 ft | 206 kts | 245° |
| 2026-04-30 13:08 | 6.15528 | 1.54498 | 6407 ft | 206 kts | 245° |
| 2026-04-30 13:08 | 6.14952 | 1.53182 | 6407 ft | 206 kts | 245° |
| 2026-04-30 13:09 | 6.14376 | 1.51866 | 6406 ft | 206 kts | 245° |
| 2026-04-30 13:09 | 6.13802 | 1.50550 | 6408 ft | 206 kts | 245° |
| 2026-04-30 13:09 | 6.13226 | 1.49234 | 6408 ft | 206 kts | 245° |
| 2026-04-30 13:09 | 6.12651 | 1.47920 | 6407 ft | 206 kts | 245° |
| 2026-04-30 13:10 | 6.12076 | 1.46603 | 6412 ft | 206 kts | 245° |
| 2026-04-30 13:10 | 6.11499 | 1.45288 | 6412 ft | 206 kts | 245° |
| 2026-04-30 13:10 | 6.10924 | 1.43969 | 6412 ft | 206 kts | 245° |
| 2026-04-30 13:10 | 6.10347 | 1.42653 | 6416 ft | 206 kts | 245° |
| 2026-04-30 13:11 | 6.09772 | 1.41336 | 6415 ft | 206 kts | 245° |
| 2026-04-30 13:11 | 6.09196 | 1.40020 | 6415 ft | 206 kts | 245° |
| 2026-04-30 13:11 | 6.08619 | 1.38702 | 6414 ft | 206 kts | 245° |
| 2026-04-30 13:11 | 6.08051 | 1.37404 | 6418 ft | 206 kts | 245° |
| 2026-04-30 13:12 | 6.07474 | 1.36084 | 6417 ft | 206 kts | 245° |
| 2026-04-30 13:12 | 6.06896 | 1.34764 | 6419 ft | 207 kts | 245° |
| 2026-04-30 13:12 | 6.06317 | 1.33441 | 6395 ft | 207 kts | 245° |
| 2026-04-30 13:13 | 6.05161 | 1.30799 | 6396 ft | 207 kts | 245° |
| 2026-04-30 13:13 | 6.04582 | 1.29476 | 6393 ft | 207 kts | 245° |
| 2026-04-30 13:13 | 6.03424 | 1.26831 | 6394 ft | 207 kts | 245° |
| 2026-04-30 13:14 | 6.02843 | 1.25506 | 6397 ft | 207 kts | 245° |
| 2026-04-30 13:14 | 6.02262 | 1.24178 | 6395 ft | 207 kts | 244° |
| 2026-04-30 13:14 | 6.01101 | 1.21528 | 6395 ft | 207 kts | 244° |
| 2026-04-30 13:15 | 6.00521 | 1.20203 | 6396 ft | 207 kts | 245° |
| 2026-04-30 13:15 | 5.99360 | 1.17554 | 6398 ft | 207 kts | 245° |
| 2026-04-30 13:15 | 5.98780 | 1.16229 | 6394 ft | 207 kts | 245° |
| 2026-04-30 13:16 | 5.98200 | 1.14906 | 6397 ft | 207 kts | 245° |
| 2026-04-30 13:16 | 5.97621 | 1.13583 | 6397 ft | 207 kts | 245° |
| 2026-04-30 13:16 | 5.97041 | 1.12262 | 6395 ft | 207 kts | 245° |
| 2026-04-30 13:17 | 5.95890 | 1.09634 | 6399 ft | 207 kts | 245° |
| 2026-04-30 13:17 | 5.95311 | 1.08311 | 6401 ft | 207 kts | 245° |
| 2026-04-30 13:17 | 5.94339 | 1.06096 | 6397 ft | 207 kts | 245° |
| 2026-04-30 13:18 | 5.93571 | 1.04343 | 6398 ft | 207 kts | 245° |
| 2026-04-30 13:18 | 5.92409 | 1.01687 | 6397 ft | 208 kts | 246° |
| 2026-04-30 13:18 | 5.92122 | 1.00268 | 6395 ft | 209 kts | 265° |
| 2026-04-30 13:19 | 5.92081 | 0.98808 | 6428 ft | 211 kts | 270° |
| 2026-04-30 13:19 | 5.92118 | 0.97331 | 6431 ft | 212 kts | 272° |
| 2026-04-30 13:19 | 5.92257 | 0.95858 | 6414 ft | 212 kts | 280° |
| 2026-04-30 13:19 | 5.92485 | 0.94402 | 6406 ft | 211 kts | 279° |
| 2026-04-30 13:20 | 5.92696 | 0.92948 | 6401 ft | 210 kts | 279° |
| 2026-04-30 13:20 | 5.92906 | 0.91493 | 6400 ft | 210 kts | 279° |
| 2026-04-30 13:20 | 5.93117 | 0.90043 | 6396 ft | 209 kts | 279° |
| 2026-04-30 13:20 | 5.93327 | 0.88615 | 6394 ft | 205 kts | 279° |
| 2026-04-30 13:21 | 5.93532 | 0.87216 | 6382 ft | 200 kts | 279° |
| 2026-04-30 13:21 | 5.93728 | 0.85857 | 6378 ft | 194 kts | 279° |
| 2026-04-30 13:21 | 5.93921 | 0.84527 | 6387 ft | 192 kts | 279° |
| 2026-04-30 13:22 | 5.94315 | 0.81830 | 6416 ft | 198 kts | 279° |
| 2026-04-30 13:22 | 5.94516 | 0.80456 | 6410 ft | 200 kts | 279° |
| 2026-04-30 13:22 | 5.94920 | 0.77672 | 6408 ft | 204 kts | 279° |
| 2026-04-30 13:23 | 5.95129 | 0.76245 | 6442 ft | 209 kts | 279° |
| 2026-04-30 13:23 | 5.95549 | 0.73349 | 6397 ft | 209 kts | 279° |
| 2026-04-30 13:24 | 5.95975 | 0.70430 | 6427 ft | 213 kts | 279° |
| 2026-04-30 13:24 | 5.96406 | 0.67469 | 6418 ft | 215 kts | 279° |
| 2026-04-30 13:25 | 5.96836 | 0.64494 | 6401 ft | 216 kts | 279° |
| 2026-04-30 13:25 | 5.97193 | 0.62032 | 6402 ft | 217 kts | 279° |
| 2026-04-30 13:26 | 5.97841 | 0.57568 | 6393 ft | 215 kts | 279° |
| 2026-04-30 13:26 | 5.98271 | 0.54615 | 6392 ft | 214 kts | 279° |
| 2026-04-30 13:27 | 5.98697 | 0.51676 | 6392 ft | 213 kts | 279° |
| 2026-04-30 13:28 | 5.99338 | 0.47257 | 6406 ft | 214 kts | 279° |
| 2026-04-30 13:28 | 5.99765 | 0.44303 | 6389 ft | 213 kts | 279° |
| 2026-04-30 13:28 | 5.99978 | 0.42835 | 6384 ft | 212 kts | 279° |
| 2026-04-30 13:29 | 6.00399 | 0.39930 | 6392 ft | 209 kts | 279° |
| 2026-04-30 13:29 | 6.00816 | 0.37046 | 6399 ft | 208 kts | 279° |
| 2026-04-30 13:30 | 6.01436 | 0.32758 | 6397 ft | 206 kts | 279° |
| 2026-04-30 13:31 | 6.01847 | 0.29927 | 6407 ft | 206 kts | 279° |
| 2026-04-30 13:31 | 6.02466 | 0.25633 | 6416 ft | 208 kts | 279° |
| 2026-04-30 13:32 | 6.02883 | 0.22760 | 6392 ft | 207 kts | 279° |
| 2026-04-30 13:32 | 6.03294 | 0.19905 | 6400 ft | 206 kts | 279° |
| 2026-04-30 13:33 | 6.03707 | 0.17045 | 6400 ft | 207 kts | 279° |
| 2026-04-30 13:33 | 6.04122 | 0.14177 | 6406 ft | 208 kts | 279° |
| 2026-04-30 13:34 | 6.04329 | 0.12739 | 6401 ft | 208 kts | 279° |
| 2026-04-30 13:34 | 6.04954 | 0.08406 | 6406 ft | 209 kts | 279° |
| 2026-04-30 13:35 | 6.05163 | 0.06959 | 6400 ft | 209 kts | 278° |
| 2026-04-30 13:35 | 6.05580 | 0.04069 | 6398 ft | 209 kts | 278° |
| 2026-04-30 13:36 | 6.05994 | 0.01185 | 6407 ft | 209 kts | 279° |
| 2026-04-30 13:36 | 6.06204 | -0.00265 | 6417 ft | 211 kts | 279° |
| 2026-04-30 13:36 | 6.06623 | -0.03175 | 6394 ft | 210 kts | 278° |
| 2026-04-30 13:37 | 6.06831 | -0.04626 | 6411 ft | 210 kts | 278° |
| 2026-04-30 13:37 | 6.07249 | -0.07527 | 6389 ft | 208 kts | 278° |
| 2026-04-30 13:38 | 6.07659 | -0.10385 | 6408 ft | 206 kts | 279° |
| 2026-04-30 13:38 | 6.07864 | -0.11806 | 6405 ft | 206 kts | 279° |
| 2026-04-30 13:38 | 6.08274 | -0.14651 | 6414 ft | 205 kts | 278° |
| 2026-04-30 13:39 | 6.08678 | -0.17459 | 6487 ft | 202 kts | 278° |
| 2026-04-30 13:39 | 6.09078 | -0.20246 | 6515 ft | 204 kts | 279° |
| 2026-04-30 13:40 | 6.09283 | -0.21675 | 6517 ft | 205 kts | 279° |
| 2026-04-30 13:40 | 6.09487 | -0.23095 | 6525 ft | 206 kts | 279° |
| 2026-04-30 13:40 | 6.09692 | -0.24521 | 6528 ft | 207 kts | 278° |
| 2026-04-30 13:40 | 6.09632 | -0.25957 | 6536 ft | 209 kts | 250° |
| 2026-04-30 13:41 | 6.08944 | -0.27216 | 6541 ft | 210 kts | 234° |
| 2026-04-30 13:41 | 6.08070 | -0.28403 | 6545 ft | 212 kts | 230° |
| 2026-04-30 13:41 | 6.07130 | -0.29556 | 6549 ft | 215 kts | 225° |
| 2026-04-30 13:41 | 6.06076 | -0.30606 | 6502 ft | 212 kts | 222° |
| 2026-04-30 13:42 | 6.05032 | -0.31642 | 6497 ft | 210 kts | 223° |
| 2026-04-30 13:42 | 6.04008 | -0.32677 | 6502 ft | 208 kts | 223° |
| 2026-04-30 13:42 | 6.01975 | -0.34710 | 6513 ft | 205 kts | 223° |
| 2026-04-30 13:43 | 6.00965 | -0.35724 | 6522 ft | 205 kts | 223° |
| 2026-04-30 13:43 | 5.99955 | -0.36737 | 6520 ft | 205 kts | 222° |
| 2026-04-30 13:43 | 5.98944 | -0.37748 | 6522 ft | 205 kts | 222° |
| 2026-04-30 13:43 | 5.97935 | -0.38761 | 6519 ft | 205 kts | 222° |
| 2026-04-30 13:44 | 5.96927 | -0.39770 | 6518 ft | 205 kts | 222° |
| 2026-04-30 13:44 | 5.95917 | -0.40782 | 6516 ft | 205 kts | 222° |
| 2026-04-30 13:44 | 5.94903 | -0.41799 | 6546 ft | 208 kts | 223° |
| 2026-04-30 13:44 | 5.93870 | -0.42831 | 6528 ft | 210 kts | 222° |
| 2026-04-30 13:45 | 5.91817 | -0.44889 | 6507 ft | 207 kts | 222° |
| 2026-04-30 13:45 | 5.90794 | -0.45913 | 6541 ft | 209 kts | 222° |
| 2026-04-30 13:45 | 5.89760 | -0.46947 | 6567 ft | 211 kts | 222° |
| 2026-04-30 13:46 | 5.88718 | -0.47991 | 6558 ft | 212 kts | 222° |
| 2026-04-30 13:46 | 5.87679 | -0.49035 | 6528 ft | 211 kts | 223° |
| 2026-04-30 13:46 | 5.86642 | -0.50071 | 6516 ft | 209 kts | 222° |
| 2026-04-30 13:46 | 5.85615 | -0.51098 | 6508 ft | 207 kts | 223° |
| 2026-04-30 13:47 | 5.84601 | -0.52118 | 6507 ft | 206 kts | 222° |
| 2026-04-30 13:47 | 5.83599 | -0.53118 | 6517 ft | 206 kts | 222° |
| 2026-04-30 13:47 | 5.82583 | -0.54133 | 6519 ft | 206 kts | 222° |
| 2026-04-30 13:47 | 5.81567 | -0.55154 | 6514 ft | 207 kts | 223° |
| 2026-04-30 13:48 | 5.80545 | -0.56174 | 6512 ft | 207 kts | 222° |
| 2026-04-30 13:48 | 5.79528 | -0.57194 | 6504 ft | 207 kts | 222° |
| 2026-04-30 13:48 | 5.78509 | -0.58212 | 6505 ft | 206 kts | 222° |
| 2026-04-30 13:48 | 5.77497 | -0.59228 | 6507 ft | 206 kts | 222° |
| 2026-04-30 13:49 | 5.76482 | -0.60242 | 6509 ft | 206 kts | 221° |
| 2026-04-30 13:49 | 5.75464 | -0.61259 | 6516 ft | 206 kts | 222° |
| 2026-04-30 13:49 | 5.74449 | -0.62276 | 6511 ft | 206 kts | 222° |
| 2026-04-30 13:49 | 5.73433 | -0.63294 | 6506 ft | 206 kts | 222° |
| 2026-04-30 13:50 | 5.72415 | -0.64311 | 6518 ft | 207 kts | 222° |
| 2026-04-30 13:50 | 5.70380 | -0.66348 | 6507 ft | 206 kts | 222° |
| 2026-04-30 13:50 | 5.69370 | -0.67359 | 6499 ft | 206 kts | 222° |
| 2026-04-30 13:51 | 5.68364 | -0.68366 | 6506 ft | 206 kts | 222° |
| 2026-04-30 13:51 | 5.67355 | -0.69374 | 6509 ft | 206 kts | 222° |
| 2026-04-30 13:51 | 5.66361 | -0.70369 | 6507 ft | 206 kts | 222° |
| 2026-04-30 13:51 | 5.65337 | -0.71393 | 6500 ft | 206 kts | 222° |
| 2026-04-30 13:52 | 5.64322 | -0.72408 | 6533 ft | 208 kts | 223° |
| 2026-04-30 13:52 | 5.63285 | -0.73445 | 6554 ft | 211 kts | 222° |
| 2026-04-30 13:52 | 5.62264 | -0.74468 | 6530 ft | 210 kts | 222° |
| 2026-04-30 13:52 | 5.61216 | -0.75516 | 6514 ft | 209 kts | 222° |
| 2026-04-30 13:53 | 5.60241 | -0.76489 | 6499 ft | 208 kts | 222° |
| 2026-04-30 13:53 | 5.59218 | -0.77512 | 6506 ft | 207 kts | 222° |
| 2026-04-30 13:53 | 5.58198 | -0.78533 | 6505 ft | 207 kts | 222° |
| 2026-04-30 13:53 | 5.57178 | -0.79551 | 6504 ft | 207 kts | 222° |
| 2026-04-30 13:54 | 5.56159 | -0.80572 | 6497 ft | 207 kts | 222° |
| 2026-04-30 13:54 | 5.55141 | -0.81588 | 6489 ft | 206 kts | 222° |
| 2026-04-30 13:54 | 5.54128 | -0.82602 | 6491 ft | 205 kts | 222° |
| 2026-04-30 13:54 | 5.53116 | -0.83613 | 6490 ft | 205 kts | 222° |
| 2026-04-30 13:55 | 5.52106 | -0.84622 | 6496 ft | 205 kts | 222° |
| 2026-04-30 13:55 | 5.51097 | -0.85631 | 6511 ft | 206 kts | 222° |
| 2026-04-30 13:55 | 5.50075 | -0.86653 | 6524 ft | 208 kts | 222° |
| 2026-04-30 13:55 | 5.49049 | -0.87677 | 6510 ft | 208 kts | 222° |
| 2026-04-30 13:56 | 5.48024 | -0.88703 | 6496 ft | 208 kts | 222° |
| 2026-04-30 13:56 | 5.47004 | -0.89722 | 6494 ft | 207 kts | 222° |
| 2026-04-30 13:56 | 5.45987 | -0.90738 | 6486 ft | 206 kts | 222° |
| 2026-04-30 13:56 | 5.44974 | -0.91750 | 6496 ft | 206 kts | 222° |
| 2026-04-30 13:57 | 5.43961 | -0.92762 | 6483 ft | 205 kts | 222° |
| 2026-04-30 13:57 | 5.42948 | -0.93775 | 6488 ft | 205 kts | 222° |
| 2026-04-30 13:57 | 5.41927 | -0.94793 | 6542 ft | 209 kts | 222° |
| 2026-04-30 13:57 | 5.40900 | -0.95822 | 6507 ft | 209 kts | 222° |
| 2026-04-30 13:58 | 5.39873 | -0.96847 | 6496 ft | 208 kts | 222° |
| 2026-04-30 13:58 | 5.37827 | -0.98891 | 6490 ft | 207 kts | 222° |
| 2026-04-30 13:58 | 5.36823 | -0.99893 | 6484 ft | 206 kts | 222° |
| 2026-04-30 13:59 | 5.35810 | -1.00906 | 6487 ft | 205 kts | 222° |
| 2026-04-30 13:59 | 5.34797 | -1.01916 | 6486 ft | 205 kts | 222° |
| 2026-04-30 13:59 | 5.33783 | -1.02931 | 6494 ft | 206 kts | 221° |
| 2026-04-30 13:59 | 5.32756 | -1.03953 | 6514 ft | 209 kts | 221° |
| 2026-04-30 14:00 | 5.31716 | -1.04994 | 6511 ft | 213 kts | 222° |
| 2026-04-30 14:00 | 5.29626 | -1.07079 | 6467 ft | 210 kts | 222° |
| 2026-04-30 14:00 | 5.28589 | -1.08116 | 6483 ft | 210 kts | 222° |
| 2026-04-30 14:01 | 5.27553 | -1.09150 | 6476 ft | 210 kts | 222° |
| 2026-04-30 14:01 | 5.26521 | -1.10181 | 6475 ft | 209 kts | 221° |
| 2026-04-30 14:01 | 5.25489 | -1.11210 | 6480 ft | 210 kts | 222° |
| 2026-04-30 14:01 | 5.24456 | -1.12242 | 6483 ft | 210 kts | 221° |
| 2026-04-30 14:02 | 5.23422 | -1.13272 | 6484 ft | 210 kts | 222° |
| 2026-04-30 14:02 | 5.22390 | -1.14304 | 6486 ft | 209 kts | 221° |
| 2026-04-30 14:02 | 5.21360 | -1.15332 | 6475 ft | 209 kts | 221° |
| 2026-04-30 14:02 | 5.20332 | -1.16357 | 6476 ft | 208 kts | 221° |
| 2026-04-30 14:03 | 5.19310 | -1.17380 | 6483 ft | 207 kts | 221° |
| 2026-04-30 14:03 | 5.18297 | -1.18388 | 6498 ft | 208 kts | 222° |
| 2026-04-30 14:03 | 5.17267 | -1.19417 | 6495 ft | 209 kts | 222° |
| 2026-04-30 14:03 | 5.16230 | -1.20451 | 6512 ft | 212 kts | 221° |
| 2026-04-30 14:04 | 5.15186 | -1.21494 | 6485 ft | 212 kts | 222° |
| 2026-04-30 14:04 | 5.14135 | -1.22542 | 6492 ft | 214 kts | 221° |
| 2026-04-30 14:04 | 5.13082 | -1.23592 | 6485 ft | 213 kts | 221° |
| 2026-04-30 14:04 | 5.12030 | -1.24640 | 6469 ft | 212 kts | 221° |
| 2026-04-30 14:05 | 5.11026 | -1.25724 | 6480 ft | 214 kts | 233° |
| 2026-04-30 14:05 | 5.10605 | -1.27149 | 6475 ft | 216 kts | 267° |
| 2026-04-30 14:05 | 5.10650 | -1.28661 | 6499 ft | 217 kts | 275° |
| 2026-04-30 14:05 | 5.10805 | -1.30116 | 6496 ft | 218 kts | 280° |
| 2026-04-30 14:06 | 5.11143 | -1.31598 | 6482 ft | 218 kts | 285° |
| 2026-04-30 14:06 | 5.11832 | -1.34531 | 6466 ft | 214 kts | 284° |
| 2026-04-30 14:07 | 5.12510 | -1.37438 | 6493 ft | 214 kts | 284° |
| 2026-04-30 14:07 | 5.12851 | -1.38897 | 6477 ft | 214 kts | 284° |
| 2026-04-30 14:07 | 5.13187 | -1.40342 | 6471 ft | 212 kts | 284° |
| 2026-04-30 14:08 | 5.13845 | -1.43165 | 6500 ft | 212 kts | 284° |
| 2026-04-30 14:08 | 5.14180 | -1.44605 | 6490 ft | 212 kts | 284° |
| 2026-04-30 14:08 | 5.14849 | -1.47478 | 6488 ft | 211 kts | 284° |
| 2026-04-30 14:09 | 5.15183 | -1.48914 | 6494 ft | 212 kts | 284° |
| 2026-04-30 14:09 | 5.15518 | -1.50351 | 6486 ft | 212 kts | 284° |
| 2026-04-30 14:09 | 5.16188 | -1.53228 | 6475 ft | 211 kts | 284° |
| 2026-04-30 14:10 | 5.16520 | -1.54660 | 6483 ft | 211 kts | 284° |
| 2026-04-30 14:10 | 5.16854 | -1.56090 | 6483 ft | 210 kts | 284° |
| 2026-04-30 14:10 | 5.17186 | -1.57515 | 6490 ft | 210 kts | 284° |
| 2026-04-30 14:10 | 5.17518 | -1.58944 | 6488 ft | 210 kts | 284° |
| 2026-04-30 14:11 | 5.17849 | -1.60373 | 6507 ft | 212 kts | 285° |
| 2026-04-30 14:11 | 5.18187 | -1.61820 | 6512 ft | 214 kts | 284° |
| 2026-04-30 14:11 | 5.18413 | -1.62788 | 6496 ft | 215 kts | 284° |
| 2026-04-30 14:11 | 5.18751 | -1.64249 | 6474 ft | 214 kts | 284° |
| 2026-04-30 14:12 | 5.19089 | -1.65700 | 6482 ft | 213 kts | 284° |
| 2026-04-30 14:12 | 5.19531 | -1.67607 | 6479 ft | 211 kts | 284° |
| 2026-04-30 14:12 | 5.19866 | -1.69038 | 6485 ft | 211 kts | 284° |
| 2026-04-30 14:12 | 5.20090 | -1.70006 | 6484 ft | 210 kts | 284° |
| 2026-04-30 14:13 | 5.20528 | -1.71893 | 6490 ft | 210 kts | 284° |
| 2026-04-30 14:13 | 5.20752 | -1.72857 | 6491 ft | 210 kts | 284° |
| 2026-04-30 14:13 | 5.21084 | -1.74284 | 6486 ft | 209 kts | 284° |
| 2026-04-30 14:13 | 5.21414 | -1.75707 | 6489 ft | 209 kts | 284° |
| 2026-04-30 14:14 | 5.21732 | -1.77072 | 6485 ft | 209 kts | 284° |
| 2026-04-30 14:14 | 5.22057 | -1.78473 | 6488 ft | 209 kts | 284° |
| 2026-04-30 14:14 | 5.22390 | -1.79911 | 6486 ft | 209 kts | 284° |
| 2026-04-30 14:14 | 5.22716 | -1.81311 | 6485 ft | 209 kts | 284° |
| 2026-04-30 14:15 | 5.23045 | -1.82728 | 6485 ft | 208 kts | 284° |
| 2026-04-30 14:15 | 5.23374 | -1.84144 | 6485 ft | 208 kts | 284° |
| 2026-04-30 14:15 | 5.23697 | -1.85538 | 6489 ft | 208 kts | 284° |
| 2026-04-30 14:15 | 5.24025 | -1.86947 | 6487 ft | 208 kts | 284° |
| 2026-04-30 14:16 | 5.24352 | -1.88356 | 6482 ft | 208 kts | 284° |
| 2026-04-30 14:16 | 5.24681 | -1.89771 | 6479 ft | 208 kts | 284° |
| 2026-04-30 14:16 | 5.25008 | -1.91182 | 6487 ft | 208 kts | 284° |
| 2026-04-30 14:16 | 5.25335 | -1.92598 | 6489 ft | 208 kts | 284° |
| 2026-04-30 14:17 | 5.25665 | -1.94013 | 6485 ft | 208 kts | 284° |
| 2026-04-30 14:17 | 5.25993 | -1.95433 | 6490 ft | 209 kts | 284° |
| 2026-04-30 14:17 | 5.26301 | -1.96864 | 6538 ft | 212 kts | 278° |
| 2026-04-30 14:17 | 5.26417 | -1.98346 | 6512 ft | 213 kts | 272° |
| 2026-04-30 14:18 | 5.26440 | -1.99836 | 6498 ft | 214 kts | 270° |
| 2026-04-30 14:18 | 5.26356 | -2.01325 | 6494 ft | 214 kts | 263° |
| 2026-04-30 14:18 | 5.26020 | -2.04293 | 6473 ft | 214 kts | 263° |
| 2026-04-30 14:19 | 5.25702 | -2.07230 | 6479 ft | 211 kts | 263° |
| 2026-04-30 14:19 | 5.25546 | -2.08674 | 6484 ft | 211 kts | 263° |
| 2026-04-30 14:19 | 5.25384 | -2.10141 | 6476 ft | 211 kts | 263° |
| 2026-04-30 14:20 | 5.25229 | -2.11603 | 6465 ft | 210 kts | 263° |
| 2026-04-30 14:20 | 5.25070 | -2.13057 | 6486 ft | 210 kts | 263° |
| 2026-04-30 14:20 | 5.24754 | -2.15970 | 6469 ft | 211 kts | 263° |
| 2026-04-30 14:21 | 5.24595 | -2.17420 | 6462 ft | 209 kts | 263° |
| 2026-04-30 14:21 | 5.24438 | -2.18868 | 6480 ft | 209 kts | 263° |
| 2026-04-30 14:21 | 5.24123 | -2.21779 | 6471 ft | 210 kts | 263° |
| 2026-04-30 14:22 | 5.23963 | -2.23230 | 6471 ft | 209 kts | 263° |
| 2026-04-30 14:22 | 5.23649 | -2.26132 | 6471 ft | 209 kts | 263° |
| 2026-04-30 14:22 | 5.23490 | -2.27583 | 6475 ft | 209 kts | 263° |
| 2026-04-30 14:23 | 5.23173 | -2.30492 | 6486 ft | 211 kts | 263° |
| 2026-04-30 14:23 | 5.22855 | -2.33423 | 6468 ft | 211 kts | 263° |
| 2026-04-30 14:24 | 5.22537 | -2.36340 | 6472 ft | 210 kts | 263° |
| 2026-04-30 14:24 | 5.22379 | -2.37795 | 6474 ft | 210 kts | 263° |
| 2026-04-30 14:25 | 5.22063 | -2.40700 | 6470 ft | 209 kts | 263° |
| 2026-04-30 14:25 | 5.21744 | -2.43599 | 6475 ft | 210 kts | 263° |
| 2026-04-30 14:26 | 5.21428 | -2.46511 | 6470 ft | 210 kts | 263° |
| 2026-04-30 14:26 | 5.21269 | -2.47966 | 6464 ft | 209 kts | 263° |
| 2026-04-30 14:26 | 5.20954 | -2.50845 | 6470 ft | 209 kts | 263° |
| 2026-04-30 14:27 | 5.20797 | -2.52295 | 6473 ft | 209 kts | 263° |
| 2026-04-30 14:27 | 5.20636 | -2.53747 | 6471 ft | 209 kts | 263° |
| 2026-04-30 14:27 | 5.20480 | -2.55198 | 6471 ft | 209 kts | 263° |
| 2026-04-30 14:28 | 5.20162 | -2.58101 | 6473 ft | 210 kts | 264° |
| 2026-04-30 14:28 | 5.20004 | -2.59552 | 6462 ft | 209 kts | 263° |
| 2026-04-30 14:28 | 5.19845 | -2.61003 | 6473 ft | 209 kts | 263° |
| 2026-04-30 14:28 | 5.19685 | -2.62454 | 6472 ft | 210 kts | 263° |
| 2026-04-30 14:29 | 5.19367 | -2.65367 | 6465 ft | 210 kts | 263° |
| 2026-04-30 14:29 | 5.19048 | -2.68278 | 6469 ft | 210 kts | 263° |
| 2026-04-30 14:30 | 5.18572 | -2.72627 | 6471 ft | 210 kts | 263° |
| 2026-04-30 14:31 | 5.18253 | -2.75544 | 6470 ft | 210 kts | 263° |
| 2026-04-30 14:31 | 5.17933 | -2.78467 | 6459 ft | 211 kts | 263° |
| 2026-04-30 14:31 | 5.17773 | -2.79927 | 6458 ft | 210 kts | 263° |
| 2026-04-30 14:32 | 5.17453 | -2.82832 | 6462 ft | 209 kts | 263° |
| 2026-04-30 14:32 | 5.17294 | -2.84280 | 6460 ft | 210 kts | 263° |
| 2026-04-30 14:32 | 5.17142 | -2.85684 | 6464 ft | 210 kts | 263° |
| 2026-04-30 14:33 | 5.16980 | -2.87141 | 6466 ft | 210 kts | 263° |
| 2026-04-30 14:33 | 5.16745 | -2.90061 | 6467 ft | 210 kts | 267° |
| 2026-04-30 14:33 | 5.16743 | -2.91526 | 6466 ft | 210 kts | 274° |
| 2026-04-30 14:34 | 5.16844 | -2.92988 | 6465 ft | 210 kts | 274° |
| 2026-04-30 14:34 | 5.16933 | -2.94448 | 6462 ft | 210 kts | 274° |
| 2026-04-30 14:34 | 5.17016 | -2.95914 | 6468 ft | 211 kts | 274° |
| 2026-04-30 14:34 | 5.17106 | -2.97381 | 6472 ft | 211 kts | 274° |
| 2026-04-30 14:35 | 5.17280 | -3.00340 | 6471 ft | 213 kts | 274° |
| 2026-04-30 14:35 | 5.17368 | -3.01807 | 6468 ft | 214 kts | 274° |
| 2026-04-30 14:35 | 5.17457 | -3.03296 | 6462 ft | 214 kts | 274° |
| 2026-04-30 14:36 | 5.17545 | -3.04781 | 6456 ft | 213 kts | 274° |
| 2026-04-30 14:36 | 5.17631 | -3.06263 | 6458 ft | 212 kts | 274° |
| 2026-04-30 14:36 | 5.17720 | -3.07744 | 6464 ft | 212 kts | 274° |
| 2026-04-30 14:36 | 5.17808 | -3.09226 | 6470 ft | 212 kts | 274° |
| 2026-04-30 14:37 | 5.17894 | -3.10703 | 6467 ft | 212 kts | 274° |
| 2026-04-30 14:37 | 5.17982 | -3.12180 | 6465 ft | 212 kts | 274° |
| 2026-04-30 14:37 | 5.18070 | -3.13649 | 6463 ft | 211 kts | 274° |
| 2026-04-30 14:37 | 5.18156 | -3.15118 | 6468 ft | 211 kts | 274° |
| 2026-04-30 14:38 | 5.18242 | -3.16585 | 6490 ft | 211 kts | 274° |
| 2026-04-30 14:38 | 5.18331 | -3.18063 | 6470 ft | 214 kts | 274° |
| 2026-04-30 14:38 | 5.18420 | -3.19566 | 6377 ft | 218 kts | 274° |
| 2026-04-30 14:38 | 5.18509 | -3.21090 | 6284 ft | 220 kts | 274° |
| 2026-04-30 14:39 | 5.18600 | -3.22623 | 6180 ft | 220 kts | 274° |
| 2026-04-30 14:39 | 5.18660 | -3.23636 | 6117 ft | 220 kts | 274° |